createdAt,value
2023-05-09T00:02:06.955Z,101589.78
2023-05-09T00:04:35.387Z,101579.16
2023-05-09T00:07:02.620Z,101576.59
2023-05-09T00:09:29.716Z,101572.16
2023-05-09T00:11:56.702Z,101571.28
2023-05-09T00:14:24.905Z,101576.59
2023-05-09T00:16:52.955Z,101566.88
2023-05-09T00:19:20.203Z,101566.03
2023-05-09T00:21:47.256Z,101561.63
2023-05-09T00:24:14.319Z,101551.00
2023-05-09T00:26:41.584Z,101542.19
2023-05-09T00:29:08.618Z,101550.16
2023-05-09T00:31:36.355Z,101543.16
2023-05-09T00:34:03.427Z,101543.97
2023-05-09T00:36:30.598Z,101545.72
2023-05-09T00:38:57.650Z,101528.91
2023-05-09T00:41:24.680Z,101536.06
2023-05-09T00:43:51.821Z,101532.50
2023-05-09T00:46:18.915Z,101536.03
2023-05-09T00:48:46.572Z,101532.47
2023-05-09T00:51:14.108Z,101535.97
2023-05-09T00:53:41.240Z,101532.41
2023-05-09T00:56:09.251Z,101527.97
2023-05-09T00:58:36.374Z,101521.69
2023-05-09T01:01:03.889Z,101513.75
2023-05-09T01:03:31.656Z,101512.88
2023-05-09T01:06:39.637Z,101505.78
2023-05-09T01:09:34.418Z,101497.88
2023-05-09T01:12:04.576Z,101494.44
2023-05-09T01:14:59.929Z,101493.63
2023-05-09T01:17:44.283Z,101495.41
2023-05-09T01:20:16.889Z,101497.16
2023-05-09T01:23:01.270Z,101484.81
2023-05-09T01:25:38.409Z,101480.38
2023-05-09T01:28:58.188Z,101474.19
2023-05-09T01:31:26.790Z,101476.88
2023-05-09T01:33:59.845Z,101476.03
2023-05-09T01:36:33.027Z,101475.19
2023-05-09T01:39:02.188Z,101464.63
2023-05-09T01:41:34.530Z,101466.44
2023-05-09T01:44:06.948Z,101460.28
2023-05-09T01:46:36.206Z,101461.16
2023-05-09T01:49:04.990Z,101460.31
2023-05-09T01:51:34.459Z,101454.16
2023-05-09T01:54:02.166Z,101457.72
2023-05-09T01:56:31.193Z,101452.44
2023-05-09T01:59:00.140Z,101456.88
2023-05-09T02:01:27.725Z,101451.59
2023-05-09T02:03:56.256Z,101441.91
2023-05-09T02:06:25.486Z,101444.63
2023-05-09T02:08:52.708Z,101442.91
2023-05-09T02:11:19.920Z,101435.84
2023-05-09T02:13:47.155Z,101432.34
2023-05-09T02:16:14.943Z,101435.91
2023-05-09T02:18:41.973Z,101431.56
2023-05-09T02:21:09.121Z,101440.41
2023-05-09T02:23:36.163Z,101448.38
2023-05-09T02:26:04.028Z,101450.19
2023-05-09T02:28:31.691Z,101442.22
2023-05-09T02:31:02.261Z,101446.66
2023-05-09T02:33:30.889Z,101444.91
2023-05-09T02:35:57.960Z,101446.69
2023-05-09T02:38:25.185Z,101443.16
2023-05-09T02:40:52.675Z,101441.41
2023-05-09T02:43:22.043Z,101446.72
2023-05-09T02:45:49.098Z,101445.84
2023-05-09T02:48:16.145Z,101437.00
2023-05-09T02:50:43.488Z,101422.03
2023-05-09T02:53:10.579Z,101423.84
2023-05-09T02:55:37.989Z,101421.28
2023-05-09T02:58:13.978Z,101417.81
2023-05-09T03:00:43.078Z,101413.44
2023-05-09T03:03:10.328Z,101410.78
2023-05-09T03:05:37.623Z,101403.72
2023-05-09T03:08:05.182Z,101403.75
2023-05-09T03:10:32.279Z,101407.25
2023-05-09T03:12:59.337Z,101401.06
2023-05-09T03:15:26.964Z,101399.28
2023-05-09T03:17:54.025Z,101399.28
2023-05-09T03:20:21.225Z,101394.94
2023-05-09T03:22:48.598Z,101392.31
2023-05-09T03:25:16.395Z,101392.34
2023-05-09T03:27:43.679Z,101393.25
2023-05-09T03:30:11.624Z,101395.06
2023-05-09T03:32:39.121Z,101388.91
2023-05-09T03:35:06.597Z,101401.25
2023-05-09T03:37:33.797Z,101388.91
2023-05-09T03:40:01.019Z,101388.00
2023-05-09T03:42:28.107Z,101390.63
2023-05-09T03:44:55.275Z,101385.31
2023-05-09T03:47:22.343Z,101383.59
2023-05-09T03:49:49.738Z,101382.69
2023-05-09T03:52:16.792Z,101387.09
2023-05-09T03:54:43.927Z,101382.66
2023-05-09T03:57:11.037Z,101372.94
2023-05-09T03:59:38.130Z,101380.91
2023-05-09T04:02:05.989Z,101384.44
2023-05-09T04:04:33.126Z,101373.88
2023-05-09T04:07:00.290Z,101363.31
2023-05-09T04:09:28.205Z,101360.69
2023-05-09T04:11:55.314Z,101354.50
2023-05-09T04:14:22.432Z,101356.31
2023-05-09T04:16:49.532Z,101340.41
2023-05-09T04:19:16.627Z,101351.03
2023-05-09T04:21:43.770Z,101350.13
2023-05-09T04:24:10.870Z,101349.22
2023-05-09T04:26:39.050Z,101346.53
2023-05-09T04:29:06.507Z,101350.91
2023-05-09T04:31:33.940Z,101348.22
2023-05-09T04:34:00.997Z,101343.78
2023-05-09T04:36:28.974Z,101338.47
2023-05-09T04:38:56.216Z,101338.44
2023-05-09T04:41:24.029Z,101335.75
2023-05-09T04:43:52.461Z,101340.16
2023-05-09T04:46:19.619Z,101332.09
2023-05-09T04:48:46.686Z,101329.44
2023-05-09T04:51:13.719Z,101326.66
2023-05-09T04:53:40.802Z,101327.41
2023-05-09T04:56:08.296Z,101321.97
2023-05-09T04:58:38.452Z,101308.53
2023-05-09T05:01:07.099Z,101313.75
2023-05-09T05:03:34.448Z,101308.38
2023-05-09T05:06:01.691Z,101302.19
2023-05-09T05:08:28.970Z,101296.91
2023-05-09T05:10:56.291Z,101294.22
2023-05-09T05:13:23.498Z,101288.06
2023-05-09T05:15:50.771Z,101285.38
2023-05-09T05:18:18.270Z,101285.28
2023-05-09T05:20:45.825Z,101285.22
2023-05-09T05:23:12.910Z,101285.13
2023-05-09T05:25:40.011Z,101281.50
2023-05-09T05:28:07.055Z,101284.91
2023-05-09T05:30:34.615Z,101266.25
2023-05-09T05:33:01.891Z,101270.50
2023-05-09T05:35:29.414Z,101267.59
2023-05-09T05:37:56.518Z,101270.00
2023-05-09T05:40:23.730Z,101261.78
2023-05-09T05:42:50.770Z,101266.75
2023-05-09T05:45:18.145Z,101266.59
2023-05-09T05:47:45.714Z,101263.75
2023-05-09T05:50:13.536Z,101267.13
2023-05-09T05:52:41.768Z,101266.97
2023-05-09T05:55:09.347Z,101255.25
2023-05-09T05:57:37.763Z,101251.50
2023-05-09T06:00:10.602Z,101247.66
2023-05-09T06:02:38.043Z,101243.88
2023-05-09T06:05:07.162Z,101243.56
2023-05-09T06:07:34.267Z,101239.75
2023-05-09T06:10:01.384Z,101245.81
2023-05-09T06:12:28.559Z,101228.03
2023-05-09T06:14:55.730Z,101227.78
2023-05-09T06:17:23.136Z,101223.28
2023-05-09T06:19:50.232Z,101224.16
2023-05-09T06:22:17.243Z,101222.22
2023-05-09T06:24:44.217Z,101215.09
2023-05-09T06:27:11.359Z,101215.03
2023-05-09T06:29:38.558Z,101213.25
2023-05-09T06:32:06.138Z,101216.75
2023-05-09T06:34:33.338Z,101214.03
2023-05-09T06:37:00.438Z,101223.66
2023-05-09T06:39:27.579Z,101219.97
2023-05-09T06:41:54.578Z,101210.13
2023-05-09T06:44:22.023Z,101207.31
2023-05-09T06:46:49.235Z,101211.69
2023-05-09T06:49:16.430Z,101201.69
2023-05-09T06:51:43.570Z,101205.00
2023-05-09T06:54:10.748Z,101195.91
2023-05-09T06:56:37.796Z,101196.75
2023-05-09T06:59:07.811Z,101202.13
2023-05-09T07:01:35.003Z,101191.84
2023-05-09T07:04:02.210Z,101189.53
2023-05-09T07:06:29.587Z,101198.25
2023-05-09T07:08:56.856Z,101190.03
2023-05-09T07:11:24.073Z,101188.28
2023-05-09T07:13:51.740Z,101188.34
2023-05-09T07:16:18.982Z,101181.28
2023-05-09T07:18:46.004Z,101175.28
2023-05-09T07:21:13.207Z,101179.84
2023-05-09T07:23:40.417Z,101176.53
2023-05-09T07:26:07.814Z,101176.69
2023-05-09T07:28:34.939Z,101180.66
2023-05-09T07:31:02.224Z,101176.59
2023-05-09T07:33:29.257Z,101171.56
2023-05-09T07:35:58.225Z,101178.88
2023-05-09T07:38:25.260Z,101167.41
2023-05-09T07:40:53.270Z,101171.81
2023-05-09T07:43:20.456Z,101171.81
2023-05-09T07:45:47.540Z,101161.25
2023-05-09T07:48:14.589Z,101164.75
2023-05-09T07:50:41.641Z,101162.06
2023-05-09T07:53:08.625Z,101160.16
2023-05-09T07:55:36.534Z,101157.47
2023-05-09T07:58:03.862Z,101157.28
2023-05-09T08:00:30.934Z,101155.03
2023-05-09T08:02:58.082Z,101143.34
2023-05-09T08:05:25.236Z,101140.44
2023-05-09T08:07:52.442Z,101140.44
2023-05-09T08:10:21.861Z,101142.88
2023-05-09T08:12:49.169Z,101126.75
2023-05-09T08:15:16.379Z,101119.50
2023-05-09T08:17:43.759Z,101126.25
2023-05-09T08:20:12.026Z,101119.50
2023-05-09T08:22:40.602Z,101119.13
2023-05-09T08:25:09.214Z,101112.59
2023-05-09T08:27:36.322Z,101101.53
2023-05-09T08:30:04.223Z,101100.84
2023-05-09T08:32:31.246Z,101102.53
2023-05-09T08:34:58.238Z,101101.75
2023-05-09T08:37:26.117Z,101103.50
2023-05-09T08:39:53.119Z,101097.34
2023-05-09T08:42:24.770Z,101097.56
2023-05-09T08:44:53.549Z,101101.53
2023-05-09T08:47:21.791Z,101096.25
2023-05-09T08:49:50.359Z,101094.34
2023-05-09T08:52:17.664Z,101093.88
2023-05-09T08:54:44.988Z,101093.53
2023-05-09T08:57:12.475Z,101090.69
2023-05-09T08:59:42.360Z,101093.41
2023-05-09T09:02:14.635Z,101095.44
2023-05-09T09:04:41.867Z,101088.66
2023-05-09T09:07:10.054Z,101086.44
2023-05-09T09:09:39.399Z,101089.25
2023-05-09T09:12:09.781Z,101095.88
2023-05-09T09:14:42.839Z,101084.44
2023-05-09T09:17:12.176Z,101082.81
2023-05-09T09:19:43.136Z,101079.50
2023-05-09T09:22:16.430Z,101078.91
2023-05-09T09:24:43.680Z,101081.78
2023-05-09T09:27:10.959Z,101073.91
2023-05-09T09:29:38.807Z,101068.50
2023-05-09T09:32:07.906Z,101060.97
2023-05-09T09:34:35.287Z,101064.00
2023-05-09T09:37:02.392Z,101055.75
2023-05-09T09:39:29.457Z,101064.28
2023-05-09T09:41:56.448Z,101052.66
2023-05-09T09:44:23.612Z,101049.88
2023-05-09T09:46:55.947Z,101050.28
2023-05-09T09:49:25.853Z,101052.97
2023-05-09T09:51:55.842Z,101050.34
2023-05-09T09:54:26.844Z,101057.13
2023-05-09T09:56:54.971Z,101054.13
2023-05-09T09:59:27.904Z,101049.41
2023-05-09T10:02:07.055Z,101047.00
2023-05-09T10:04:37.955Z,101043.94
2023-05-09T10:07:12.806Z,101042.50
2023-05-09T10:09:43.826Z,101036.31
2023-05-09T10:12:11.911Z,101038.22
2023-05-09T10:14:42.353Z,101041.94
2023-05-09T10:17:17.381Z,101031.97
2023-05-09T10:19:47.735Z,101037.31
2023-05-09T10:22:17.908Z,101024.94
2023-05-09T10:24:59.567Z,101028.66
2023-05-09T10:27:30.572Z,101024.41
2023-05-09T10:30:19.719Z,101024.00
2023-05-09T10:33:11.182Z,101024.28
2023-05-09T10:35:52.065Z,101017.38
2023-05-09T10:38:19.371Z,101020.13
2023-05-09T10:40:49.907Z,101014.78
2023-05-09T10:43:17.034Z,101011.63
2023-05-09T10:45:44.687Z,101007.50
2023-05-09T10:48:13.132Z,100998.81
2023-05-09T10:50:42.542Z,101004.19
2023-05-09T10:53:17.920Z,100994.41
2023-05-09T10:55:52.906Z,100997.78
2023-05-09T10:58:33.690Z,100993.31
2023-05-09T11:01:03.537Z,100982.66
2023-05-09T11:03:54.301Z,100992.66
2023-05-09T11:06:54.011Z,100983.16
2023-05-09T11:09:41.466Z,100976.09
2023-05-09T11:12:12.159Z,100976.69
2023-05-09T11:14:41.479Z,100975.59
2023-05-09T11:17:16.786Z,100977.28
2023-05-09T11:19:46.811Z,100972.00
2023-05-09T11:22:21.270Z,100967.56
2023-05-09T11:24:59.144Z,100966.84
2023-05-09T11:27:30.611Z,100969.94
2023-05-09T11:29:59.668Z,100956.97
2023-05-09T11:32:34.293Z,100956.41
2023-05-09T11:35:14.946Z,100959.13
2023-05-09T11:38:02.787Z,100963.66
2023-05-09T11:40:31.455Z,100951.31
2023-05-09T11:42:59.940Z,100950.94
2023-05-09T11:45:33.298Z,100942.28
2023-05-09T11:48:01.527Z,100942.66
2023-05-09T11:50:29.498Z,100951.44
2023-05-09T11:52:56.558Z,100937.03
2023-05-09T11:55:25.337Z,100940.41
2023-05-09T11:57:54.532Z,100940.41
2023-05-09T12:00:26.484Z,100943.00
2023-05-09T12:02:54.052Z,100939.56
2023-05-09T12:05:23.410Z,100933.34
2023-05-09T12:07:50.928Z,100931.44
2023-05-09T12:10:23.250Z,100930.81
2023-05-09T12:12:52.948Z,100933.91
2023-05-09T12:15:21.841Z,100932.19
2023-05-09T12:18:05.671Z,100924.38
2023-05-09T12:20:50.424Z,100927.09
2023-05-09T12:23:19.703Z,100928.13
2023-05-09T12:25:57.295Z,100929.78
2023-05-09T12:28:25.935Z,100915.53
2023-05-09T12:30:54.646Z,100916.34
2023-05-09T12:33:22.442Z,100916.09
2023-05-09T12:36:10.396Z,100910.56
2023-05-09T12:38:38.216Z,100909.59
2023-05-09T12:41:15.430Z,100894.44
2023-05-09T12:43:51.181Z,100899.47
2023-05-09T12:46:20.257Z,100888.44
2023-05-09T12:48:49.304Z,100890.97
2023-05-09T12:51:20.999Z,100887.16
2023-05-09T12:53:48.747Z,100883.34
2023-05-09T12:56:25.355Z,100884.16
2023-05-09T12:58:56.088Z,100881.41
2023-05-09T13:01:28.229Z,100889.16
2023-05-09T13:04:06.696Z,100887.09
2023-05-09T13:06:36.056Z,100874.63
2023-05-09T13:09:06.217Z,100883.44
2023-05-09T13:11:33.933Z,100882.47
2023-05-09T13:14:03.147Z,100868.19
2023-05-09T13:16:30.205Z,100873.47
2023-05-09T13:18:57.266Z,100867.09
2023-05-09T13:21:24.378Z,100869.56
2023-05-09T13:23:52.187Z,100862.19
2023-05-09T13:26:19.509Z,100866.34
2023-05-09T13:28:46.616Z,100859.16
2023-05-09T13:31:13.913Z,100854.19
2023-05-09T13:33:41.227Z,100845.47
2023-05-09T13:36:08.432Z,100847.00
2023-05-09T13:38:39.053Z,100842.06
2023-05-09T13:41:10.109Z,100847.06
2023-05-09T13:43:42.619Z,100840.19
2023-05-09T13:46:09.882Z,100832.31
2023-05-09T13:48:37.858Z,100829.91
2023-05-09T13:51:07.562Z,100834.41
2023-05-09T13:53:35.773Z,100837.09
2023-05-09T13:56:04.052Z,100822.03
2023-05-09T13:58:31.132Z,100823.88
2023-05-09T14:00:58.387Z,100822.22
2023-05-09T14:03:25.492Z,100821.41
2023-05-09T14:05:52.685Z,100813.41
2023-05-09T14:08:21.399Z,100805.28
2023-05-09T14:10:48.643Z,100810.78
2023-05-09T14:13:15.796Z,100815.38
2023-05-09T14:15:42.966Z,100806.75
2023-05-09T14:18:10.020Z,100807.88
2023-05-09T14:20:37.752Z,100805.38
2023-05-09T14:23:04.923Z,100804.59
2023-05-09T14:25:32.432Z,100794.00
2023-05-09T14:27:59.710Z,100788.63
2023-05-09T14:30:27.127Z,100787.56
2023-05-09T14:32:54.271Z,100784.72
2023-05-09T14:35:21.395Z,100786.34
2023-05-09T14:37:48.412Z,100784.50
2023-05-09T14:40:16.312Z,100775.50
2023-05-09T14:42:44.231Z,100776.28
2023-05-09T14:45:12.831Z,100772.69
2023-05-09T14:47:41.209Z,100767.44
2023-05-09T14:50:11.442Z,100773.69
2023-05-09T14:52:38.459Z,100758.59
2023-05-09T14:55:07.411Z,100765.81
2023-05-09T14:57:34.750Z,100765.94
2023-05-09T15:00:12.503Z,100755.22
2023-05-09T15:02:47.261Z,100755.06
2023-05-09T15:05:14.718Z,100753.31
2023-05-09T15:07:41.752Z,100744.72
2023-05-09T15:10:09.378Z,100740.00
2023-05-09T15:12:36.478Z,100746.47
2023-05-09T15:15:19.131Z,100742.34
2023-05-09T15:17:46.412Z,100735.31
2023-05-09T15:20:15.658Z,100740.69
2023-05-09T15:22:43.196Z,100741.78
2023-05-09T15:26:12.832Z,100737.72
2023-05-09T15:28:40.053Z,100729.41
2023-05-09T15:31:08.399Z,100724.44
2023-05-09T15:33:35.719Z,100725.63
2023-05-09T15:36:03.243Z,100731.97
2023-05-09T15:38:30.364Z,100726.81
2023-05-09T15:40:57.413Z,100729.63
2023-05-09T15:43:24.471Z,100725.84
2023-05-09T15:45:51.818Z,100725.53
2023-05-09T15:48:19.180Z,100718.19
2023-05-09T15:50:46.228Z,100718.94
2023-05-09T15:53:15.560Z,100717.16
2023-05-09T15:55:43.709Z,100724.13
2023-05-09T15:58:11.060Z,100716.28
2023-05-09T16:00:38.180Z,100712.94
2023-05-09T16:03:05.282Z,100708.59
2023-05-09T16:05:32.422Z,100707.84
2023-05-09T16:07:59.475Z,100701.66
2023-05-09T16:10:26.941Z,100705.97
2023-05-09T16:12:54.204Z,100703.31
2023-05-09T16:15:21.731Z,100693.53
2023-05-09T16:17:48.772Z,100697.22
2023-05-09T16:20:16.056Z,100700.91
2023-05-09T16:22:43.296Z,100699.75
2023-05-09T16:25:11.245Z,100702.31
2023-05-09T16:27:38.485Z,100689.88
2023-05-09T16:30:06.454Z,100695.78
2023-05-09T16:32:33.543Z,100693.28
2023-05-09T16:35:00.578Z,100692.78
2023-05-09T16:37:29.842Z,100688.53
2023-05-09T16:39:57.842Z,100689.41
2023-05-09T16:42:25.306Z,100681.66
2023-05-09T16:44:52.679Z,100678.44
2023-05-09T16:47:19.655Z,100677.59
2023-05-09T16:49:46.757Z,100681.28
2023-05-09T16:52:13.813Z,100683.88
2023-05-09T16:54:42.115Z,100677.81
2023-05-09T16:57:09.268Z,100677.91
2023-05-09T16:59:37.277Z,100672.53
2023-05-09T17:02:04.705Z,100676.16
2023-05-09T17:04:32.064Z,100675.34
2023-05-09T17:06:59.255Z,100672.59
2023-05-09T17:09:26.297Z,100676.16
2023-05-09T17:11:53.485Z,100670.00
2023-05-09T17:14:20.574Z,100669.22
2023-05-09T17:16:47.623Z,100670.16
2023-05-09T17:19:16.216Z,100671.19
2023-05-09T17:21:43.302Z,100674.84
2023-05-09T17:24:10.516Z,100670.63
2023-05-09T17:26:38.663Z,100671.66
2023-05-09T17:29:06.032Z,100676.16
2023-05-09T17:31:33.147Z,100669.28
2023-05-09T17:34:01.560Z,100666.03
2023-05-09T17:36:28.630Z,100674.91
2023-05-09T17:38:56.231Z,100672.34
2023-05-09T17:41:23.528Z,100663.47
2023-05-09T17:43:51.955Z,100662.56
2023-05-09T17:46:19.003Z,100653.91
2023-05-09T17:48:47.821Z,100658.50
2023-05-09T17:51:15.064Z,100658.56
2023-05-09T17:53:42.791Z,100655.91
2023-05-09T17:56:09.972Z,100659.44
2023-05-09T17:58:37.104Z,100661.25
2023-05-09T18:01:04.211Z,100655.03
2023-05-09T18:03:32.330Z,100656.94
2023-05-09T18:06:02.787Z,100664.16
2023-05-09T18:08:29.973Z,100657.16
2023-05-09T18:10:57.781Z,100663.38
2023-05-09T18:13:25.082Z,100659.91
2023-05-09T18:15:54.125Z,100662.53
2023-05-09T18:18:22.441Z,100654.69
2023-05-09T18:20:49.624Z,100661.75
2023-05-09T18:23:16.670Z,100665.44
2023-05-09T18:25:43.848Z,100663.75
2023-05-09T18:28:11.012Z,100667.22
2023-05-09T18:30:38.991Z,100664.59
2023-05-09T18:33:06.201Z,100664.59
2023-05-09T18:35:33.222Z,100668.13
2023-05-09T18:38:00.357Z,100657.56
2023-05-09T18:40:27.862Z,100663.72
2023-05-09T18:42:55.165Z,100662.91
2023-05-09T18:45:22.429Z,100663.88
2023-05-09T18:47:49.565Z,100665.75
2023-05-09T18:50:18.431Z,100668.41
2023-05-09T18:52:46.018Z,100665.81
2023-05-09T18:55:19.687Z,100668.50
2023-05-09T18:57:47.015Z,100669.41
2023-05-09T19:00:15.623Z,100669.47
2023-05-09T19:02:42.989Z,100678.38
2023-05-09T19:05:10.787Z,100672.25
2023-05-09T19:07:38.591Z,100674.06
2023-05-09T19:10:08.351Z,100669.63
2023-05-09T19:12:35.516Z,100674.06
2023-05-09T19:15:03.272Z,100671.41
2023-05-09T19:17:30.474Z,100673.19
2023-05-09T19:19:58.392Z,100675.88
2023-05-09T19:22:25.475Z,100684.69
2023-05-09T19:24:52.571Z,100684.69
2023-05-09T19:27:19.638Z,100678.53
2023-05-09T19:29:49.304Z,100692.69
2023-05-09T19:32:18.108Z,100693.56
2023-05-09T19:34:45.135Z,100688.31
2023-05-09T19:37:12.175Z,100691.88
2023-05-09T19:39:39.211Z,100690.97
2023-05-09T19:42:06.505Z,100696.28
2023-05-09T19:44:33.614Z,100693.66
2023-05-09T19:47:05.087Z,100693.66
2023-05-09T19:49:32.784Z,100687.47
2023-05-09T19:51:59.849Z,100691.88
2023-05-09T19:54:27.253Z,100691.06
2023-05-09T19:56:54.463Z,100694.56
2023-05-09T19:59:21.454Z,100691.97
2023-05-09T20:01:48.666Z,100700.75
2023-05-09T20:04:16.486Z,100698.13
2023-05-09T20:06:43.468Z,100695.44
2023-05-09T20:09:10.488Z,100699.84
2023-05-09T20:11:37.472Z,100700.69
2023-05-09T20:14:04.572Z,100695.38
2023-05-09T20:16:31.718Z,100697.09
2023-05-09T20:18:59.347Z,100703.25
2023-05-09T20:21:27.755Z,100704.16
2023-05-09T20:23:54.756Z,100698.94
2023-05-09T20:26:23.893Z,100696.31
2023-05-09T20:28:58.860Z,100702.47
2023-05-09T20:31:25.904Z,100706.03
2023-05-09T20:33:54.618Z,100702.47
2023-05-09T20:36:22.082Z,100701.63
2023-05-09T20:38:49.379Z,100698.09
2023-05-09T20:41:17.420Z,100700.75
2023-05-09T20:43:44.608Z,100696.31
2023-05-09T20:46:11.980Z,100699.84
2023-05-09T20:48:39.065Z,100698.09
2023-05-09T20:51:09.023Z,100702.47
2023-05-09T20:53:37.683Z,100701.59
2023-05-09T20:56:05.185Z,100705.19
2023-05-09T20:58:34.615Z,100706.19
2023-05-09T21:01:01.769Z,100707.97
2023-05-09T21:03:28.887Z,100708.88
2023-05-09T21:05:55.978Z,100711.63
2023-05-09T21:08:23.532Z,100701.09
2023-05-09T21:10:54.392Z,100709.97
2023-05-09T21:13:21.497Z,100706.50
2023-05-09T21:15:51.892Z,100703.84
2023-05-09T21:18:20.483Z,100713.56
2023-05-09T21:20:47.535Z,100704.75
2023-05-09T21:23:14.940Z,100714.50
2023-05-09T21:25:42.405Z,100711.03
2023-05-09T21:28:09.423Z,100710.16
2023-05-09T21:30:36.646Z,100711.91
2023-05-09T21:33:04.237Z,100700.50
2023-05-09T21:35:31.370Z,100699.59
2023-05-09T21:37:58.400Z,100710.16
2023-05-09T21:40:25.633Z,100701.28
2023-05-09T21:42:52.633Z,100708.41
2023-05-09T21:45:19.865Z,100706.66
2023-05-09T21:47:47.051Z,100704.94
2023-05-09T21:50:14.810Z,100698.75
2023-05-09T21:52:42.127Z,100699.69
2023-05-09T21:55:09.855Z,100700.59
2023-05-09T21:57:37.036Z,100694.47
2023-05-09T22:00:06.416Z,100696.25
2023-05-09T22:02:34.230Z,100687.44
2023-05-09T22:05:01.409Z,100693.59
2023-05-09T22:07:28.500Z,100697.97
2023-05-09T22:09:55.834Z,100697.94
2023-05-09T22:12:23.104Z,100690.91
2023-05-09T22:14:56.284Z,100699.75
2023-05-09T22:17:24.597Z,100691.81
2023-05-09T22:19:52.106Z,100693.69
2023-05-09T22:22:19.255Z,100705.13
2023-05-09T22:24:46.298Z,100695.44
2023-05-09T22:27:13.396Z,100697.22
2023-05-09T22:29:41.448Z,100701.63
2023-05-09T22:32:08.727Z,100699.00
2023-05-09T22:34:36.089Z,100694.53
2023-05-09T22:37:03.523Z,100699.88
2023-05-09T22:39:30.977Z,100706.09
2023-05-09T22:41:58.030Z,100704.28
2023-05-09T22:44:25.172Z,100696.44
2023-05-09T22:46:52.215Z,100701.75
2023-05-09T22:49:19.329Z,100707.06
2023-05-09T22:51:46.423Z,100705.31
2023-05-09T22:54:13.444Z,100703.56
2023-05-09T22:56:40.450Z,100701.78
2023-05-09T22:59:07.561Z,100702.66
2023-05-09T23:01:34.707Z,100704.38
2023-05-09T23:04:01.866Z,100701.78
2023-05-09T23:06:28.965Z,100697.41
2023-05-09T23:08:56.076Z,100700.91
2023-05-09T23:11:24.661Z,100699.09
2023-05-09T23:13:51.917Z,100698.25
2023-05-09T23:16:19.109Z,100695.66
2023-05-09T23:18:46.229Z,100695.63
2023-05-09T23:21:13.399Z,100694.75
2023-05-09T23:23:40.724Z,100694.72
2023-05-09T23:26:07.978Z,100688.56
2023-05-09T23:28:34.946Z,100693.84
2023-05-09T23:31:02.166Z,100693.84
2023-05-09T23:33:29.262Z,100695.63
2023-05-09T23:35:57.095Z,100685.91
2023-05-09T23:38:24.293Z,100693.88
2023-05-09T23:40:53.051Z,100695.66
2023-05-09T23:43:20.203Z,100697.44
2023-05-09T23:45:47.702Z,100685.91
2023-05-09T23:48:14.732Z,100697.34
2023-05-09T23:50:41.899Z,100691.16
2023-05-09T23:53:08.963Z,100688.56
2023-05-09T23:55:35.945Z,100690.34
2023-05-09T23:58:03.054Z,100685.91
